sensor_id;sensor_type;location;lat;lon;timestamp;P1;durP1;ratioP1;P2;durP2;ratioP2
30096;SDS011;16915;51.466;3.610;2023-02-28T00:02:19;2.72;;;1.95;;
30096;SDS011;16915;51.466;3.610;2023-02-28T00:04:45;7.22;;;2.08;;
30096;SDS011;16915;51.466;3.610;2023-02-28T00:07:17;5.32;;;1.98;;
30096;SDS011;16915;51.466;3.610;2023-02-28T00:09:43;2.58;;;2.00;;
30096;SDS011;16915;51.466;3.610;2023-02-28T00:12:09;2.00;;;1.90;;
30096;SDS011;16915;51.466;3.610;2023-02-28T00:14:35;1.85;;;1.75;;
30096;SDS011;16915;51.466;3.610;2023-02-28T00:17:01;2.95;;;2.10;;
30096;SDS011;16915;51.466;3.610;2023-02-28T00:19:27;3.45;;;1.90;;
30096;SDS011;16915;51.466;3.610;2023-02-28T00:21:52;3.13;;;1.63;;
30096;SDS011;16915;51.466;3.610;2023-02-28T00:24:18;4.50;;;2.15;;
30096;SDS011;16915;51.466;3.610;2023-02-28T00:26:43;3.50;;;2.40;;
30096;SDS011;16915;51.466;3.610;2023-02-28T00:29:09;2.75;;;2.05;;
30096;SDS011;16915;51.466;3.610;2023-02-28T00:31:35;2.75;;;2.20;;
30096;SDS011;16915;51.466;3.610;2023-02-28T00:34:00;5.32;;;2.30;;
30096;SDS011;16915;51.466;3.610;2023-02-28T00:36:26;5.82;;;2.33;;
30096;SDS011;16915;51.466;3.610;2023-02-28T00:38:51;2.10;;;1.90;;
30096;SDS011;16915;51.466;3.610;2023-02-28T00:41:17;3.80;;;2.35;;
30096;SDS011;16915;51.466;3.610;2023-02-28T00:43:43;3.50;;;2.42;;
30096;SDS011;16915;51.466;3.610;2023-02-28T00:46:08;7.95;;;3.33;;
30096;SDS011;16915;51.466;3.610;2023-02-28T00:48:34;6.43;;;2.15;;
30096;SDS011;16915;51.466;3.610;2023-02-28T00:51:00;4.20;;;2.35;;
30096;SDS011;16915;51.466;3.610;2023-02-28T00:53:26;3.15;;;2.40;;
30096;SDS011;16915;51.466;3.610;2023-02-28T00:55:52;4.53;;;2.10;;
30096;SDS011;16915;51.466;3.610;2023-02-28T00:58:18;2.65;;;2.30;;
30096;SDS011;16915;51.466;3.610;2023-02-28T01:00:44;1.88;;;1.77;;
30096;SDS011;16915;51.466;3.610;2023-02-28T01:03:13;4.10;;;2.20;;
30096;SDS011;16915;51.466;3.610;2023-02-28T01:05:43;2.42;;;2.05;;
30096;SDS011;16915;51.466;3.610;2023-02-28T01:08:08;2.28;;;2.08;;
30096;SDS011;16915;51.466;3.610;2023-02-28T01:10:34;2.30;;;2.10;;
30096;SDS011;16915;51.466;3.610;2023-02-28T01:13:01;3.42;;;2.47;;
30096;SDS011;16915;51.466;3.610;2023-02-28T01:15:27;2.97;;;2.28;;
30096;SDS011;16915;51.466;3.610;2023-02-28T01:17:53;6.28;;;2.33;;
30096;SDS011;16915;51.466;3.610;2023-02-28T01:20:19;5.05;;;2.45;;
30096;SDS011;16915;51.466;3.610;2023-02-28T01:22:44;5.00;;;2.00;;
30096;SDS011;16915;51.466;3.610;2023-02-28T01:25:10;3.53;;;2.10;;
30096;SDS011;16915;51.466;3.610;2023-02-28T01:27:36;2.33;;;1.90;;
30096;SDS011;16915;51.466;3.610;2023-02-28T01:30:02;2.28;;;2.05;;
30096;SDS011;16915;51.466;3.610;2023-02-28T01:32:28;3.42;;;2.40;;
30096;SDS011;16915;51.466;3.610;2023-02-28T01:34:53;6.22;;;2.28;;
30096;SDS011;16915;51.466;3.610;2023-02-28T01:37:19;2.75;;;2.22;;
30096;SDS011;16915;51.466;3.610;2023-02-28T01:39:45;2.83;;;2.53;;
30096;SDS011;16915;51.466;3.610;2023-02-28T01:42:10;3.50;;;2.50;;
30096;SDS011;16915;51.466;3.610;2023-02-28T01:47:20;4.25;;;2.80;;
30096;SDS011;16915;51.466;3.610;2023-02-28T01:49:47;5.55;;;2.60;;
30096;SDS011;16915;51.466;3.610;2023-02-28T01:52:13;2.78;;;1.95;;
30096;SDS011;16915;51.466;3.610;2023-02-28T01:54:43;3.47;;;2.58;;
30096;SDS011;16915;51.466;3.610;2023-02-28T01:57:30;4.13;;;2.35;;
30096;SDS011;16915;51.466;3.610;2023-02-28T02:00:12;2.92;;;2.38;;
30096;SDS011;16915;51.466;3.610;2023-02-28T02:02:43;7.05;;;3.15;;
30096;SDS011;16915;51.466;3.610;2023-02-28T02:07:42;3.60;;;2.42;;
30096;SDS011;16915;51.466;3.610;2023-02-28T02:10:13;3.05;;;2.80;;
30096;SDS011;16915;51.466;3.610;2023-02-28T02:15:40;3.22;;;2.92;;
30096;SDS011;16915;51.466;3.610;2023-02-28T02:18:20;3.47;;;3.00;;
30096;SDS011;16915;51.466;3.610;2023-02-28T02:20:59;3.20;;;2.90;;
30096;SDS011;16915;51.466;3.610;2023-02-28T02:23:45;3.15;;;2.65;;
30096;SDS011;16915;51.466;3.610;2023-02-28T02:26:45;5.43;;;3.10;;
30096;SDS011;16915;51.466;3.610;2023-02-28T02:38:03;4.22;;;3.53;;
30096;SDS011;16915;51.466;3.610;2023-02-28T02:40:38;7.75;;;3.33;;
30096;SDS011;16915;51.466;3.610;2023-02-28T02:43:12;4.32;;;2.67;;
30096;SDS011;16915;51.466;3.610;2023-02-28T02:45:44;2.83;;;2.63;;
30096;SDS011;16915;51.466;3.610;2023-02-28T02:48:15;5.75;;;3.28;;
30096;SDS011;16915;51.466;3.610;2023-02-28T02:51:06;5.97;;;3.22;;
30096;SDS011;16915;51.466;3.610;2023-02-28T02:53:38;4.32;;;2.85;;
30096;SDS011;16915;51.466;3.610;2023-02-28T02:58:44;4.70;;;3.30;;
30096;SDS011;16915;51.466;3.610;2023-02-28T03:01:18;6.10;;;3.33;;
30096;SDS011;16915;51.466;3.610;2023-02-28T03:03:52;3.97;;;3.35;;
30096;SDS011;16915;51.466;3.610;2023-02-28T03:06:23;3.67;;;3.25;;
30096;SDS011;16915;51.466;3.610;2023-02-28T03:08:49;5.72;;;3.30;;
30096;SDS011;16915;51.466;3.610;2023-02-28T03:11:15;4.32;;;3.40;;
30096;SDS011;16915;51.466;3.610;2023-02-28T03:14:25;6.82;;;3.65;;
30096;SDS011;16915;51.466;3.610;2023-02-28T03:19:38;5.07;;;3.80;;
30096;SDS011;16915;51.466;3.610;2023-02-28T03:23:03;5.72;;;3.75;;
30096;SDS011;16915;51.466;3.610;2023-02-28T03:28:39;6.30;;;3.53;;
30096;SDS011;16915;51.466;3.610;2023-02-28T03:31:32;6.22;;;3.42;;
30096;SDS011;16915;51.466;3.610;2023-02-28T03:34:05;6.68;;;3.90;;
30096;SDS011;16915;51.466;3.610;2023-02-28T03:36:38;3.58;;;3.28;;
30096;SDS011;16915;51.466;3.610;2023-02-28T03:39:11;5.38;;;3.35;;
30096;SDS011;16915;51.466;3.610;2023-02-28T03:41:43;5.90;;;3.30;;
30096;SDS011;16915;51.466;3.610;2023-02-28T03:44:16;5.38;;;3.35;;
30096;SDS011;16915;51.466;3.610;2023-02-28T03:47:04;3.60;;;3.28;;
30096;SDS011;16915;51.466;3.610;2023-02-28T03:50:09;8.68;;;3.60;;
30096;SDS011;16915;51.466;3.610;2023-02-28T03:52:47;5.88;;;3.47;;
30096;SDS011;16915;51.466;3.610;2023-02-28T03:55:16;5.53;;;3.58;;
30096;SDS011;16915;51.466;3.610;2023-02-28T03:57:55;6.38;;;3.20;;
30096;SDS011;16915;51.466;3.610;2023-02-28T04:03:00;5.57;;;3.10;;
30096;SDS011;16915;51.466;3.610;2023-02-28T04:05:27;4.65;;;3.38;;
30096;SDS011;16915;51.466;3.610;2023-02-28T04:07:53;4.28;;;2.72;;
30096;SDS011;16915;51.466;3.610;2023-02-28T04:10:19;7.88;;;3.78;;
30096;SDS011;16915;51.466;3.610;2023-02-28T04:12:44;3.58;;;3.28;;
30096;SDS011;16915;51.466;3.610;2023-02-28T04:15:10;6.45;;;3.55;;
30096;SDS011;16915;51.466;3.610;2023-02-28T04:17:36;5.80;;;3.65;;
30096;SDS011;16915;51.466;3.610;2023-02-28T04:20:02;6.35;;;3.30;;
30096;SDS011;16915;51.466;3.610;2023-02-28T04:22:34;5.60;;;3.20;;
30096;SDS011;16915;51.466;3.610;2023-02-28T04:24:59;4.50;;;3.40;;
30096;SDS011;16915;51.466;3.610;2023-02-28T04:27:25;5.70;;;3.92;;
30096;SDS011;16915;51.466;3.610;2023-02-28T04:29:50;10.43;;;2.88;;
30096;SDS011;16915;51.466;3.610;2023-02-28T04:32:16;6.30;;;3.45;;
30096;SDS011;16915;51.466;3.610;2023-02-28T04:34:41;5.00;;;3.13;;
30096;SDS011;16915;51.466;3.610;2023-02-28T04:37:07;4.25;;;2.95;;
30096;SDS011;16915;51.466;3.610;2023-02-28T04:39:34;9.27;;;3.17;;
30096;SDS011;16915;51.466;3.610;2023-02-28T04:42:01;6.30;;;3.28;;
30096;SDS011;16915;51.466;3.610;2023-02-28T04:44:27;4.75;;;3.20;;
30096;SDS011;16915;51.466;3.610;2023-02-28T04:46:53;7.15;;;3.40;;
30096;SDS011;16915;51.466;3.610;2023-02-28T04:49:18;5.38;;;3.17;;
30096;SDS011;16915;51.466;3.610;2023-02-28T04:51:44;5.70;;;2.75;;
30096;SDS011;16915;51.466;3.610;2023-02-28T04:54:10;7.68;;;3.10;;
30096;SDS011;16915;51.466;3.610;2023-02-28T04:56:35;3.08;;;2.78;;
30096;SDS011;16915;51.466;3.610;2023-02-28T04:59:01;6.80;;;2.92;;
30096;SDS011;16915;51.466;3.610;2023-02-28T05:01:27;3.95;;;3.13;;
30096;SDS011;16915;51.466;3.610;2023-02-28T05:03:55;5.72;;;2.90;;
30096;SDS011;16915;51.466;3.610;2023-02-28T05:06:23;4.60;;;2.80;;
30096;SDS011;16915;51.466;3.610;2023-02-28T05:08:52;8.40;;;3.70;;
30096;SDS011;16915;51.466;3.610;2023-02-28T05:11:19;6.20;;;3.33;;
30096;SDS011;16915;51.466;3.610;2023-02-28T05:13:50;4.75;;;3.25;;
30096;SDS011;16915;51.466;3.610;2023-02-28T05:16:17;4.18;;;3.10;;
30096;SDS011;16915;51.466;3.610;2023-02-28T05:18:43;5.00;;;2.78;;
30096;SDS011;16915;51.466;3.610;2023-02-28T05:23:49;7.45;;;3.45;;
30096;SDS011;16915;51.466;3.610;2023-02-28T05:26:15;3.45;;;3.15;;
30096;SDS011;16915;51.466;3.610;2023-02-28T05:28:40;4.47;;;2.95;;
30096;SDS011;16915;51.466;3.610;2023-02-28T05:31:06;5.00;;;3.22;;
30096;SDS011;16915;51.466;3.610;2023-02-28T05:33:32;6.18;;;3.17;;
30096;SDS011;16915;51.466;3.610;2023-02-28T05:35:58;6.50;;;3.63;;
30096;SDS011;16915;51.466;3.610;2023-02-28T05:38:23;4.03;;;3.63;;
30096;SDS011;16915;51.466;3.610;2023-02-28T05:40:49;8.80;;;3.83;;
30096;SDS011;16915;51.466;3.610;2023-02-28T05:43:14;6.35;;;3.17;;
30096;SDS011;16915;51.466;3.610;2023-02-28T05:45:40;5.00;;;3.28;;
30096;SDS011;16915;51.466;3.610;2023-02-28T05:48:05;7.47;;;3.20;;
30096;SDS011;16915;51.466;3.610;2023-02-28T05:50:31;4.32;;;3.80;;
30096;SDS011;16915;51.466;3.610;2023-02-28T05:52:56;7.20;;;3.97;;
30096;SDS011;16915;51.466;3.610;2023-02-28T05:55:22;6.97;;;3.85;;
30096;SDS011;16915;51.466;3.610;2023-02-28T05:57:48;4.53;;;3.67;;
30096;SDS011;16915;51.466;3.610;2023-02-28T06:00:13;5.85;;;3.75;;
30096;SDS011;16915;51.466;3.610;2023-02-28T06:02:40;5.18;;;3.55;;
30096;SDS011;16915;51.466;3.610;2023-02-28T06:05:13;5.43;;;3.92;;
30096;SDS011;16915;51.466;3.610;2023-02-28T06:07:41;7.72;;;3.95;;
30096;SDS011;16915;51.466;3.610;2023-02-28T06:10:07;5.50;;;4.30;;
30096;SDS011;16915;51.466;3.610;2023-02-28T06:12:33;7.45;;;4.32;;
30096;SDS011;16915;51.466;3.610;2023-02-28T06:14:59;7.35;;;4.57;;
30096;SDS011;16915;51.466;3.610;2023-02-28T06:17:24;4.78;;;4.28;;
30096;SDS011;16915;51.466;3.610;2023-02-28T06:19:50;5.55;;;4.20;;
30096;SDS011;16915;51.466;3.610;2023-02-28T06:22:16;5.35;;;4.18;;
30096;SDS011;16915;51.466;3.610;2023-02-28T06:24:41;7.75;;;4.20;;
30096;SDS011;16915;51.466;3.610;2023-02-28T06:27:07;7.80;;;4.03;;
30096;SDS011;16915;51.466;3.610;2023-02-28T06:29:33;6.75;;;4.20;;
30096;SDS011;16915;51.466;3.610;2023-02-28T06:31:59;9.32;;;4.43;;
30096;SDS011;16915;51.466;3.610;2023-02-28T06:34:25;4.95;;;4.22;;
30096;SDS011;16915;51.466;3.610;2023-02-28T06:36:51;7.68;;;4.38;;
30096;SDS011;16915;51.466;3.610;2023-02-28T06:39:17;6.30;;;4.10;;
30096;SDS011;16915;51.466;3.610;2023-02-28T06:41:43;5.32;;;4.18;;
30096;SDS011;16915;51.466;3.610;2023-02-28T06:44:17;7.00;;;4.47;;
30096;SDS011;16915;51.466;3.610;2023-02-28T06:46:43;6.13;;;4.38;;
30096;SDS011;16915;51.466;3.610;2023-02-28T06:49:10;8.30;;;4.32;;
30096;SDS011;16915;51.466;3.610;2023-02-28T06:51:37;6.70;;;5.07;;
30096;SDS011;16915;51.466;3.610;2023-02-28T06:54:06;7.03;;;5.03;;
30096;SDS011;16915;51.466;3.610;2023-02-28T06:56:35;10.80;;;5.30;;
30096;SDS011;16915;51.466;3.610;2023-02-28T06:59:01;11.38;;;5.20;;
30096;SDS011;16915;51.466;3.610;2023-02-28T07:01:27;8.13;;;5.40;;
30096;SDS011;16915;51.466;3.610;2023-02-28T07:03:53;6.78;;;5.50;;
30096;SDS011;16915;51.466;3.610;2023-02-28T07:06:20;6.30;;;5.38;;
30096;SDS011;16915;51.466;3.610;2023-02-28T07:08:47;7.88;;;5.53;;
30096;SDS011;16915;51.466;3.610;2023-02-28T07:11:15;10.02;;;3.60;;
30096;SDS011;16915;51.466;3.610;2023-02-28T07:13:41;5.93;;;3.95;;
30096;SDS011;16915;51.466;3.610;2023-02-28T07:16:08;5.82;;;4.30;;
30096;SDS011;16915;51.466;3.610;2023-02-28T07:18:35;5.43;;;3.80;;
30096;SDS011;16915;51.466;3.610;2023-02-28T07:21:02;4.55;;;3.65;;
30096;SDS011;16915;51.466;3.610;2023-02-28T07:23:29;5.88;;;3.42;;
30096;SDS011;16915;51.466;3.610;2023-02-28T07:25:54;5.50;;;3.60;;
30096;SDS011;16915;51.466;3.610;2023-02-28T07:28:20;4.28;;;3.10;;
30096;SDS011;16915;51.466;3.610;2023-02-28T07:30:46;6.32;;;3.25;;
30096;SDS011;16915;51.466;3.610;2023-02-28T07:33:12;4.32;;;3.10;;
30096;SDS011;16915;51.466;3.610;2023-02-28T07:35:38;5.28;;;3.00;;
30096;SDS011;16915;51.466;3.610;2023-02-28T07:38:04;3.17;;;2.60;;
30096;SDS011;16915;51.466;3.610;2023-02-28T07:40:29;4.00;;;2.17;;
30096;SDS011;16915;51.466;3.610;2023-02-28T07:42:55;5.22;;;2.28;;
30096;SDS011;16915;51.466;3.610;2023-02-28T07:45:21;4.80;;;2.22;;
30096;SDS011;16915;51.466;3.610;2023-02-28T07:47:46;3.72;;;1.92;;
30096;SDS011;16915;51.466;3.610;2023-02-28T07:50:13;3.47;;;2.25;;
30096;SDS011;16915;51.466;3.610;2023-02-28T07:52:40;4.00;;;2.20;;
30096;SDS011;16915;51.466;3.610;2023-02-28T07:55:06;2.67;;;2.30;;
30096;SDS011;16915;51.466;3.610;2023-02-28T07:57:33;4.43;;;2.53;;
30096;SDS011;16915;51.466;3.610;2023-02-28T07:59:58;4.43;;;2.10;;
30096;SDS011;16915;51.466;3.610;2023-02-28T08:02:24;5.03;;;2.60;;
30096;SDS011;16915;51.466;3.610;2023-02-28T08:04:50;4.10;;;2.30;;
30096;SDS011;16915;51.466;3.610;2023-02-28T08:07:16;4.85;;;2.05;;
30096;SDS011;16915;51.466;3.610;2023-02-28T08:09:43;5.80;;;2.60;;
30096;SDS011;16915;51.466;3.610;2023-02-28T08:12:09;3.05;;;2.22;;
30096;SDS011;16915;51.466;3.610;2023-02-28T08:14:36;2.45;;;2.13;;
30096;SDS011;16915;51.466;3.610;2023-02-28T08:17:02;4.03;;;1.67;;
30096;SDS011;16915;51.466;3.610;2023-02-28T08:19:28;2.80;;;1.83;;
30096;SDS011;16915;51.466;3.610;2023-02-28T08:21:54;4.25;;;1.92;;
30096;SDS011;16915;51.466;3.610;2023-02-28T08:24:20;3.00;;;1.73;;
30096;SDS011;16915;51.466;3.610;2023-02-28T08:26:45;3.25;;;1.48;;
30096;SDS011;16915;51.466;3.610;2023-02-28T08:29:11;6.28;;;1.90;;
30096;SDS011;16915;51.466;3.610;2023-02-28T08:31:36;2.17;;;1.73;;
30096;SDS011;16915;51.466;3.610;2023-02-28T08:34:06;2.83;;;1.73;;
30096;SDS011;16915;51.466;3.610;2023-02-28T08:36:33;3.20;;;2.20;;
30096;SDS011;16915;51.466;3.610;2023-02-28T08:38:59;6.75;;;1.95;;
30096;SDS011;16915;51.466;3.610;2023-02-28T08:41:25;3.15;;;1.95;;
30096;SDS011;16915;51.466;3.610;2023-02-28T08:43:51;2.35;;;1.70;;
30096;SDS011;16915;51.466;3.610;2023-02-28T08:46:17;2.13;;;1.92;;
30096;SDS011;16915;51.466;3.610;2023-02-28T08:48:43;3.25;;;1.98;;
30096;SDS011;16915;51.466;3.610;2023-02-28T08:51:13;2.80;;;1.63;;
30096;SDS011;16915;51.466;3.610;2023-02-28T08:53:43;3.60;;;1.98;;
30096;SDS011;16915;51.466;3.610;2023-02-28T08:56:10;4.80;;;1.85;;
30096;SDS011;16915;51.466;3.610;2023-02-28T08:58:38;3.55;;;1.75;;
30096;SDS011;16915;51.466;3.610;2023-02-28T09:01:08;3.20;;;2.03;;
30096;SDS011;16915;51.466;3.610;2023-02-28T09:03:41;6.22;;;2.63;;
30096;SDS011;16915;51.466;3.610;2023-02-28T09:06:08;3.00;;;2.38;;
30096;SDS011;16915;51.466;3.610;2023-02-28T09:08:34;2.63;;;1.98;;
30096;SDS011;16915;51.466;3.610;2023-02-28T09:11:00;4.90;;;2.35;;
30096;SDS011;16915;51.466;3.610;2023-02-28T09:13:26;3.30;;;2.10;;
30096;SDS011;16915;51.466;3.610;2023-02-28T09:15:53;2.20;;;1.80;;
30096;SDS011;16915;51.466;3.610;2023-02-28T09:18:19;2.30;;;1.83;;
30096;SDS011;16915;51.466;3.610;2023-02-28T09:20:45;5.30;;;2.05;;
30096;SDS011;16915;51.466;3.610;2023-02-28T09:23:11;3.15;;;1.27;;
30096;SDS011;16915;51.466;3.610;2023-02-28T09:25:40;3.30;;;2.00;;
30096;SDS011;16915;51.466;3.610;2023-02-28T09:28:13;3.15;;;1.90;;
30096;SDS011;16915;51.466;3.610;2023-02-28T09:30:40;3.08;;;1.70;;
30096;SDS011;16915;51.466;3.610;2023-02-28T09:33:06;3.08;;;1.48;;
30096;SDS011;16915;51.466;3.610;2023-02-28T09:35:32;3.15;;;1.67;;
30096;SDS011;16915;51.466;3.610;2023-02-28T09:37:57;2.80;;;1.60;;
30096;SDS011;16915;51.466;3.610;2023-02-28T09:40:24;1.92;;;1.40;;
30096;SDS011;16915;51.466;3.610;2023-02-28T09:42:51;2.03;;;1.60;;
30096;SDS011;16915;51.466;3.610;2023-02-28T09:47:50;4.85;;;1.90;;
30096;SDS011;16915;51.466;3.610;2023-02-28T09:52:54;1.98;;;1.65;;
30096;SDS011;16915;51.466;3.610;2023-02-28T09:58:01;3.85;;;1.83;;
30096;SDS011;16915;51.466;3.610;2023-02-28T10:00:30;4.93;;;1.85;;
30096;SDS011;16915;51.466;3.610;2023-02-28T10:08:38;2.35;;;1.80;;
30096;SDS011;16915;51.466;3.610;2023-02-28T10:11:16;4.90;;;1.80;;
30096;SDS011;16915;51.466;3.610;2023-02-28T10:14:28;2.45;;;1.55;;
30096;SDS011;16915;51.466;3.610;2023-02-28T10:16:35;1.98;;;1.60;;
30096;SDS011;16915;51.466;3.610;2023-02-28T10:19:09;6.95;;;1.70;;
30096;SDS011;16915;51.466;3.610;2023-02-28T10:22:14;1.23;;;1.15;;
30096;SDS011;16915;51.466;3.610;2023-02-28T10:27:18;1.40;;;1.30;;
30096;SDS011;16915;51.466;3.610;2023-02-28T10:29:49;4.95;;;1.23;;
30096;SDS011;16915;51.466;3.610;2023-02-28T10:32:20;1.30;;;1.15;;
30096;SDS011;16915;51.466;3.610;2023-02-28T10:35:14;2.00;;;0.98;;
30096;SDS011;16915;51.466;3.610;2023-02-28T10:42:54;1.17;;;1.00;;
30096;SDS011;16915;51.466;3.610;2023-02-28T10:45:33;1.70;;;1.10;;
30096;SDS011;16915;51.466;3.610;2023-02-28T10:48:03;2.35;;;1.20;;
30096;SDS011;16915;51.466;3.610;2023-02-28T10:50:52;1.65;;;1.25;;
30096;SDS011;16915;51.466;3.610;2023-02-28T10:56:13;4.80;;;0.95;;
30096;SDS011;16915;51.466;3.610;2023-02-28T11:03:55;1.92;;;1.35;;
30096;SDS011;16915;51.466;3.610;2023-02-28T11:06:23;2.42;;;1.50;;
30096;SDS011;16915;51.466;3.610;2023-02-28T11:11:24;2.13;;;1.30;;
30096;SDS011;16915;51.466;3.610;2023-02-28T11:13:54;1.30;;;1.20;;
30096;SDS011;16915;51.466;3.610;2023-02-28T11:16:22;2.00;;;1.63;;
30096;SDS011;16915;51.466;3.610;2023-02-28T11:19:00;2.13;;;1.38;;
30096;SDS011;16915;51.466;3.610;2023-02-28T11:21:27;2.60;;;1.70;;
30096;SDS011;16915;51.466;3.610;2023-02-28T11:24:00;1.83;;;1.50;;
30096;SDS011;16915;51.466;3.610;2023-02-28T11:26:39;3.92;;;1.67;;
30096;SDS011;16915;51.466;3.610;2023-02-28T11:32:01;1.73;;;1.50;;
30096;SDS011;16915;51.466;3.610;2023-02-28T11:34:27;4.57;;;1.85;;
30096;SDS011;16915;51.466;3.610;2023-02-28T11:36:54;1.60;;;1.50;;
30096;SDS011;16915;51.466;3.610;2023-02-28T11:39:21;1.33;;;1.23;;
30096;SDS011;16915;51.466;3.610;2023-02-28T11:44:35;1.30;;;1.20;;
30096;SDS011;16915;51.466;3.610;2023-02-28T11:47:19;1.75;;;1.38;;
30096;SDS011;16915;51.466;3.610;2023-02-28T11:58:17;2.30;;;1.35;;
30096;SDS011;16915;51.466;3.610;2023-02-28T12:09:28;2.42;;;1.27;;
30096;SDS011;16915;51.466;3.610;2023-02-28T12:12:18;1.20;;;1.10;;
30096;SDS011;16915;51.466;3.610;2023-02-28T12:20:53;2.88;;;1.30;;
30096;SDS011;16915;51.466;3.610;2023-02-28T12:23:33;1.15;;;1.05;;
30096;SDS011;16915;51.466;3.610;2023-02-28T12:29:43;1.13;;;1.08;;
30096;SDS011;16915;51.466;3.610;2023-02-28T12:32:03;1.50;;;1.40;;
30096;SDS011;16915;51.466;3.610;2023-02-28T12:34:49;1.67;;;1.50;;
30096;SDS011;16915;51.466;3.610;2023-02-28T12:37:25;1.27;;;1.17;;
30096;SDS011;16915;51.466;3.610;2023-02-28T12:40:00;2.13;;;1.27;;
30096;SDS011;16915;51.466;3.610;2023-02-28T12:42:31;1.83;;;1.48;;
30096;SDS011;16915;51.466;3.610;2023-02-28T12:45:03;2.03;;;1.52;;
30096;SDS011;16915;51.466;3.610;2023-02-28T12:47:34;1.63;;;1.42;;
30096;SDS011;16915;51.466;3.610;2023-02-28T12:52:40;5.03;;;1.70;;
30096;SDS011;16915;51.466;3.610;2023-02-28T13:03:41;2.00;;;1.25;;
30096;SDS011;16915;51.466;3.610;2023-02-28T13:09:12;3.25;;;1.27;;
30096;SDS011;16915;51.466;3.610;2023-02-28T13:11:49;1.98;;;1.75;;
30096;SDS011;16915;51.466;3.610;2023-02-28T13:14:22;2.55;;;1.30;;
30096;SDS011;16915;51.466;3.610;2023-02-28T13:16:55;2.40;;;1.20;;
30096;SDS011;16915;51.466;3.610;2023-02-28T13:19:31;1.25;;;1.15;;
30096;SDS011;16915;51.466;3.610;2023-02-28T13:21:59;1.40;;;1.30;;
30096;SDS011;16915;51.466;3.610;2023-02-28T13:24:42;1.27;;;1.17;;
30096;SDS011;16915;51.466;3.610;2023-02-28T13:27:12;1.55;;;1.08;;
30096;SDS011;16915;51.466;3.610;2023-02-28T13:29:49;1.10;;;1.00;;
30096;SDS011;16915;51.466;3.610;2023-02-28T13:50:14;1.50;;;1.15;;
30096;SDS011;16915;51.466;3.610;2023-02-28T13:52:48;2.67;;;1.33;;
30096;SDS011;16915;51.466;3.610;2023-02-28T14:06:34;1.20;;;1.10;;
30096;SDS011;16915;51.466;3.610;2023-02-28T14:14:00;3.45;;;1.17;;
30096;SDS011;16915;51.466;3.610;2023-02-28T14:16:27;1.05;;;1.02;;
30096;SDS011;16915;51.466;3.610;2023-02-28T14:19:03;1.40;;;1.10;;
30096;SDS011;16915;51.466;3.610;2023-02-28T14:21:38;2.25;;;1.45;;
30096;SDS011;16915;51.466;3.610;2023-02-28T14:30:09;2.45;;;1.13;;
30096;SDS011;16915;51.466;3.610;2023-02-28T14:38:25;1.38;;;1.27;;
30096;SDS011;16915;51.466;3.610;2023-02-28T14:40:55;1.20;;;1.10;;
30096;SDS011;16915;51.466;3.610;2023-02-28T14:43:26;1.30;;;1.20;;
30096;SDS011;16915;51.466;3.610;2023-02-28T14:45:59;3.15;;;1.48;;
30096;SDS011;16915;51.466;3.610;2023-02-28T14:48:26;1.45;;;1.00;;
30096;SDS011;16915;51.466;3.610;2023-02-28T14:50:56;1.15;;;1.05;;
30096;SDS011;16915;51.466;3.610;2023-02-28T14:53:25;1.67;;;1.35;;
30096;SDS011;16915;51.466;3.610;2023-02-28T14:55:54;1.20;;;1.10;;
30096;SDS011;16915;51.466;3.610;2023-02-28T14:58:30;1.30;;;1.20;;
30096;SDS011;16915;51.466;3.610;2023-02-28T15:00:58;1.85;;;1.35;;
30096;SDS011;16915;51.466;3.610;2023-02-28T15:03:36;1.80;;;1.40;;
30096;SDS011;16915;51.466;3.610;2023-02-28T15:06:12;5.22;;;1.80;;
30096;SDS011;16915;51.466;3.610;2023-02-28T15:08:42;1.55;;;1.45;;
30096;SDS011;16915;51.466;3.610;2023-02-28T15:11:18;2.45;;;1.30;;
30096;SDS011;16915;51.466;3.610;2023-02-28T15:13:51;1.48;;;1.38;;
30096;SDS011;16915;51.466;3.610;2023-02-28T15:16:21;3.83;;;1.48;;
30096;SDS011;16915;51.466;3.610;2023-02-28T15:18:57;1.40;;;1.30;;
30096;SDS011;16915;51.466;3.610;2023-02-28T15:21:30;2.10;;;1.60;;
30096;SDS011;16915;51.466;3.610;2023-02-28T15:24:00;1.23;;;1.10;;
30096;SDS011;16915;51.466;3.610;2023-02-28T15:26:36;1.25;;;1.15;;
30096;SDS011;16915;51.466;3.610;2023-02-28T15:29:06;1.35;;;1.10;;
30096;SDS011;16915;51.466;3.610;2023-02-28T15:31:40;1.63;;;1.35;;
30096;SDS011;16915;51.466;3.610;2023-02-28T15:34:36;1.95;;;1.42;;
30096;SDS011;16915;51.466;3.610;2023-02-28T15:42:39;1.88;;;1.60;;
30096;SDS011;16915;51.466;3.610;2023-02-28T15:45:05;2.08;;;1.27;;
30096;SDS011;16915;51.466;3.610;2023-02-28T15:47:51;2.35;;;1.45;;
30096;SDS011;16915;51.466;3.610;2023-02-28T15:50:16;1.70;;;1.17;;
30096;SDS011;16915;51.466;3.610;2023-02-28T15:52:43;2.17;;;1.77;;
30096;SDS011;16915;51.466;3.610;2023-02-28T15:55:21;1.42;;;1.33;;
30096;SDS011;16915;51.466;3.610;2023-02-28T15:57:53;1.50;;;1.40;;
30096;SDS011;16915;51.466;3.610;2023-02-28T16:00:22;2.33;;;1.35;;
30096;SDS011;16915;51.466;3.610;2023-02-28T16:02:49;2.17;;;2.00;;
30096;SDS011;16915;51.466;3.610;2023-02-28T16:05:26;1.50;;;1.27;;
30096;SDS011;16915;51.466;3.610;2023-02-28T16:08:17;4.75;;;1.52;;
30096;SDS011;16915;51.466;3.610;2023-02-28T16:10:42;1.77;;;1.42;;
30096;SDS011;16915;51.466;3.610;2023-02-28T16:13:08;1.50;;;1.40;;
30096;SDS011;16915;51.466;3.610;2023-02-28T16:15:39;2.35;;;1.10;;
30096;SDS011;16915;51.466;3.610;2023-02-28T16:18:08;2.38;;;1.60;;
30096;SDS011;16915;51.466;3.610;2023-02-28T16:20:36;1.70;;;1.60;;
30096;SDS011;16915;51.466;3.610;2023-02-28T16:23:01;1.80;;;1.70;;
30096;SDS011;16915;51.466;3.610;2023-02-28T16:25:37;2.00;;;1.70;;
30096;SDS011;16915;51.466;3.610;2023-02-28T16:28:10;3.17;;;1.70;;
30096;SDS011;16915;51.466;3.610;2023-02-28T16:30:42;1.85;;;1.50;;
30096;SDS011;16915;51.466;3.610;2023-02-28T16:33:08;1.73;;;1.63;;
30096;SDS011;16915;51.466;3.610;2023-02-28T16:35:34;2.05;;;1.85;;
30096;SDS011;16915;51.466;3.610;2023-02-28T16:38:00;3.08;;;1.40;;
30096;SDS011;16915;51.466;3.610;2023-02-28T16:40:26;2.10;;;1.85;;
30096;SDS011;16915;51.466;3.610;2023-02-28T16:42:54;1.77;;;1.67;;
30096;SDS011;16915;51.466;3.610;2023-02-28T16:45:27;1.70;;;1.60;;
30096;SDS011;16915;51.466;3.610;2023-02-28T16:47:54;3.67;;;1.90;;
30096;SDS011;16915;51.466;3.610;2023-02-28T16:50:24;1.77;;;1.67;;
30096;SDS011;16915;51.466;3.610;2023-02-28T16:52:54;1.80;;;1.70;;
30096;SDS011;16915;51.466;3.610;2023-02-28T16:55:20;1.80;;;1.60;;
30096;SDS011;16915;51.466;3.610;2023-02-28T16:57:49;1.70;;;1.60;;
30096;SDS011;16915;51.466;3.610;2023-02-28T17:00:17;1.90;;;1.70;;
30096;SDS011;16915;51.466;3.610;2023-02-28T17:02:43;2.42;;;1.85;;
30096;SDS011;16915;51.466;3.610;2023-02-28T17:05:12;1.80;;;1.70;;
30096;SDS011;16915;51.466;3.610;2023-02-28T17:07:39;2.63;;;1.60;;
30096;SDS011;16915;51.466;3.610;2023-02-28T17:10:11;1.83;;;1.58;;
30096;SDS011;16915;51.466;3.610;2023-02-28T17:12:40;4.82;;;1.70;;
30096;SDS011;16915;51.466;3.610;2023-02-28T17:15:06;4.80;;;1.48;;
30096;SDS011;16915;51.466;3.610;2023-02-28T17:17:32;3.65;;;1.92;;
30096;SDS011;16915;51.466;3.610;2023-02-28T17:19:58;2.08;;;1.73;;
30096;SDS011;16915;51.466;3.610;2023-02-28T17:22:24;5.28;;;2.10;;
30096;SDS011;16915;51.466;3.610;2023-02-28T17:24:50;2.13;;;1.90;;
30096;SDS011;16915;51.466;3.610;2023-02-28T17:27:20;2.10;;;1.90;;
30096;SDS011;16915;51.466;3.610;2023-02-28T17:29:46;1.90;;;1.80;;
30096;SDS011;16915;51.466;3.610;2023-02-28T17:32:12;2.22;;;1.70;;
30096;SDS011;16915;51.466;3.610;2023-02-28T17:34:37;3.60;;;1.90;;
30096;SDS011;16915;51.466;3.610;2023-02-28T17:37:03;2.03;;;1.90;;
30096;SDS011;16915;51.466;3.610;2023-02-28T17:39:28;2.10;;;1.75;;
30096;SDS011;16915;51.466;3.610;2023-02-28T17:41:55;2.17;;;1.98;;
30096;SDS011;16915;51.466;3.610;2023-02-28T17:44:21;2.22;;;2.03;;